EVA627 VVNB-VHHH
Flight info
| Callsign | EVA627 |
|---|---|
| Flight time | N/A |
| Altitude | 37000 |
| Route | PHUTA2B PHUTA DCT RIKMO/K0909S1130 DCT GIVIV/N0491F370 DCT GAMBA V561 CANTO |
| Aircraft | MD11/H-SDE1E2E3FGHIJ2J3J4J5M1RWXY/LB1D1 |
Departure
| Time | 2026-05-08 02:35 |
|---|---|
| Airport | Noi Bai International Airport (VVNB) |
Arrival
| Time | N/A |
|---|---|
| Airport | Hong Kong International Airport (VHHH) |
| Time | Latitude | Longitude | Altitude | Speed | Heading |
|---|---|---|---|---|---|
| 2026-05-08 02:09 | 21.22090 | 105.78652 | 56 ft | 0 kts | 197° |
| 2026-05-08 02:19 | 21.22101 | 105.78656 | 56 ft | 3 kts | 197° |
| 2026-05-08 02:19 | 21.22124 | 105.78664 | 56 ft | 3 kts | 197° |
| 2026-05-08 02:20 | 21.22147 | 105.78671 | 56 ft | 3 kts | 197° |
| 2026-05-08 02:20 | 21.22167 | 105.78677 | 52 ft | 3 kts | 179° |
| 2026-05-08 02:20 | 21.22184 | 105.78675 | 56 ft | 3 kts | 139° |
| 2026-05-08 02:20 | 21.22197 | 105.78658 | 56 ft | 3 kts | 109° |
| 2026-05-08 02:21 | 21.22203 | 105.78636 | 52 ft | 1 kts | 107° |
| 2026-05-08 02:21 | 21.22205 | 105.78632 | 56 ft | 0 kts | 107° |
| 2026-05-08 02:24 | 21.22204 | 105.78634 | 52 ft | 2 kts | 107° |
| 2026-05-08 02:24 | 21.22192 | 105.78674 | 56 ft | 9 kts | 107° |
| 2026-05-08 02:25 | 21.22168 | 105.78757 | 57 ft | 14 kts | 107° |
| 2026-05-08 02:25 | 21.22138 | 105.78861 | 57 ft | 14 kts | 106° |
| 2026-05-08 02:25 | 21.22112 | 105.78953 | 57 ft | 12 kts | 107° |
| 2026-05-08 02:25 | 21.22089 | 105.79032 | 56 ft | 10 kts | 107° |
| 2026-05-08 02:26 | 21.22068 | 105.79104 | 53 ft | 12 kts | 107° |
| 2026-05-08 02:26 | 21.22044 | 105.79186 | 56 ft | 11 kts | 107° |
| 2026-05-08 02:26 | 21.22020 | 105.79270 | 53 ft | 14 kts | 107° |
| 2026-05-08 02:26 | 21.21989 | 105.79377 | 52 ft | 15 kts | 107° |
| 2026-05-08 02:27 | 21.21960 | 105.79477 | 55 ft | 13 kts | 107° |
| 2026-05-08 02:27 | 21.21935 | 105.79563 | 54 ft | 11 kts | 107° |
| 2026-05-08 02:27 | 21.21906 | 105.79661 | 53 ft | 14 kts | 107° |
| 2026-05-08 02:27 | 21.21878 | 105.79758 | 56 ft | 14 kts | 107° |
| 2026-05-08 02:28 | 21.21845 | 105.79872 | 56 ft | 17 kts | 107° |
| 2026-05-08 02:28 | 21.21812 | 105.79985 | 56 ft | 15 kts | 107° |
| 2026-05-08 02:29 | 21.21792 | 105.80055 | 56 ft | 14 kts | 107° |
| 2026-05-08 02:29 | 21.21769 | 105.80131 | 55 ft | 13 kts | 107° |
| 2026-05-08 02:29 | 21.21739 | 105.80234 | 53 ft | 17 kts | 107° |
| 2026-05-08 02:30 | 21.21706 | 105.80350 | 55 ft | 15 kts | 107° |
| 2026-05-08 02:30 | 21.21676 | 105.80451 | 52 ft | 13 kts | 107° |
| 2026-05-08 02:30 | 21.21650 | 105.80541 | 54 ft | 12 kts | 107° |
| 2026-05-08 02:30 | 21.21622 | 105.80640 | 49 ft | 16 kts | 103° |
| 2026-05-08 02:31 | 21.21589 | 105.80773 | 52 ft | 21 kts | 105° |
| 2026-05-08 02:31 | 21.21543 | 105.80934 | 56 ft | 25 kts | 107° |
| 2026-05-08 02:31 | 21.21492 | 105.81111 | 56 ft | 24 kts | 108° |
| 2026-05-08 02:31 | 21.21443 | 105.81272 | 53 ft | 22 kts | 108° |
| 2026-05-08 02:32 | 21.21399 | 105.81417 | 56 ft | 19 kts | 108° |
| 2026-05-08 02:32 | 21.21366 | 105.81547 | 55 ft | 17 kts | 104° |
| 2026-05-08 02:32 | 21.21333 | 105.81662 | 55 ft | 15 kts | 107° |
| 2026-05-08 02:32 | 21.21309 | 105.81759 | 56 ft | 11 kts | 94° |
| 2026-05-08 02:33 | 21.21338 | 105.81811 | 55 ft | 9 kts | 43° |
| 2026-05-08 02:33 | 21.21358 | 105.81887 | 57 ft | 13 kts | 98° |
| 2026-05-08 02:33 | 21.21333 | 105.81979 | 56 ft | 13 kts | 107° |
| 2026-05-08 02:33 | 21.21328 | 105.82061 | 52 ft | 9 kts | 69° |
| 2026-05-08 02:34 | 21.21370 | 105.82095 | 56 ft | 7 kts | 20° |
| 2026-05-08 02:34 | 21.21423 | 105.82110 | 56 ft | 9 kts | 14° |
| 2026-05-08 02:34 | 21.21455 | 105.82104 | 56 ft | 2 kts | 320° |
| 2026-05-08 02:34 | 21.21468 | 105.82078 | 53 ft | 7 kts | 295° |
| 2026-05-08 02:35 | 21.21486 | 105.82024 | 54 ft | 20 kts | 288° |
| 2026-05-08 02:35 | 21.21633 | 105.81522 | 52 ft | 122 kts | 287° |
| 2026-05-08 02:35 | 21.21958 | 105.80396 | 325 ft | 177 kts | 286° |
| 2026-05-08 02:35 | 21.22300 | 105.79102 | 1512 ft | 177 kts | 286° |
| 2026-05-08 02:36 | 21.22634 | 105.77869 | 2890 ft | 175 kts | 286° |
| 2026-05-08 02:36 | 21.22985 | 105.76516 | 3725 ft | 206 kts | 285° |
| 2026-05-08 02:36 | 21.23339 | 105.74912 | 4201 ft | 239 kts | 278° |
| 2026-05-08 02:36 | 21.23298 | 105.73031 | 4631 ft | 268 kts | 259° |
| 2026-05-08 02:37 | 21.22521 | 105.71207 | 5546 ft | 275 kts | 231° |
| 2026-05-08 02:37 | 21.20968 | 105.70004 | 6430 ft | 281 kts | 198° |
| 2026-05-08 02:37 | 21.19064 | 105.69838 | 7335 ft | 281 kts | 166° |
| 2026-05-08 02:37 | 21.17325 | 105.70738 | 8272 ft | 280 kts | 136° |
| 2026-05-08 02:38 | 21.16182 | 105.72433 | 8934 ft | 284 kts | 111° |
| 2026-05-08 02:38 | 21.15635 | 105.74479 | 9339 ft | 287 kts | 100° |
| 2026-05-08 02:38 | 21.15287 | 105.76563 | 10164 ft | 290 kts | 98° |
| 2026-05-08 02:38 | 21.14942 | 105.78748 | 10318 ft | 317 kts | 99° |
| 2026-05-08 02:39 | 21.14529 | 105.81238 | 10453 ft | 343 kts | 99° |
| 2026-05-08 02:39 | 21.14084 | 105.83813 | 10620 ft | 364 kts | 100° |
| 2026-05-08 02:39 | 21.13589 | 105.86524 | 11252 ft | 370 kts | 101° |
| 2026-05-08 02:39 | 21.13083 | 105.89245 | 11897 ft | 375 kts | 101° |
| 2026-05-08 02:40 | 21.12577 | 105.91977 | 12502 ft | 382 kts | 100° |
| 2026-05-08 02:40 | 21.12062 | 105.94773 | 13129 ft | 384 kts | 100° |
| 2026-05-08 02:40 | 21.11524 | 105.97601 | 13690 ft | 388 kts | 102° |
| 2026-05-08 02:40 | 21.10974 | 106.00450 | 14213 ft | 391 kts | 101° |
| 2026-05-08 02:41 | 21.10425 | 106.03328 | 14763 ft | 393 kts | 101° |
| 2026-05-08 02:41 | 21.09884 | 106.06183 | 15327 ft | 397 kts | 101° |
| 2026-05-08 02:41 | 21.09324 | 106.09095 | 15881 ft | 401 kts | 102° |
| 2026-05-08 02:41 | 21.08546 | 106.11965 | 16180 ft | 401 kts | 110° |
| 2026-05-08 02:42 | 21.07493 | 106.14710 | 16315 ft | 403 kts | 114° |
| 2026-05-08 02:42 | 21.06295 | 106.17442 | 16437 ft | 405 kts | 115° |
| 2026-05-08 02:42 | 21.05046 | 106.20170 | 16590 ft | 407 kts | 116° |
| 2026-05-08 02:42 | 21.03800 | 106.22883 | 16731 ft | 397 kts | 115° |
| 2026-05-08 02:43 | 21.03006 | 106.24625 | 16787 ft | 389 kts | 116° |
| 2026-05-08 02:43 | 21.01441 | 106.28012 | 16807 ft | 364 kts | 116° |
| 2026-05-08 02:43 | 21.00343 | 106.30353 | 16815 ft | 351 kts | 116° |
| 2026-05-08 02:43 | 20.99282 | 106.32682 | 16818 ft | 344 kts | 115° |
| 2026-05-08 02:44 | 20.98596 | 106.34207 | 16819 ft | 340 kts | 115° |
| 2026-05-08 02:44 | 20.97588 | 106.36478 | 16820 ft | 335 kts | 114° |
| 2026-05-08 02:44 | 20.96964 | 106.38850 | 16803 ft | 330 kts | 91° |
| 2026-05-08 02:44 | 20.97158 | 106.41272 | 16816 ft | 324 kts | 78° |